Time;durP1;ratioP1;P1;durP2;ratioP2;P2;SDS_P1;SDS_P2;PMS_P1;PMS_P2;Temp;Humidity;BMP_temperature;BMP_pressure;BME280_temperature;BME280_humidity;BME280_pressure;Samples;Min_cycle;Max_cycle;Signal;HPM_P1;HPM_P2
2021/06/30 00:02:23;;;;;;;3.93;3.03;;;;;;;;;;5090852;28;20448;-71
2021/06/30 00:04:49;;;;;;;3.80;3.40;;;;;;;;;;5092675;28;20428;-71
2021/06/30 00:07:15;;;;;;;3.73;3.33;;;;;;;;;;5091251;28;20427;-71
2021/06/30 00:09:42;;;;;;;5.17;3.03;;;;;;;;;;5092911;28;20423;-71
2021/06/30 00:12:08;;;;;;;3.43;2.40;;;;;;;;;;5079053;28;20428;-71
2021/06/30 00:14:34;;;;;;;3.20;2.67;;;;;;;;;;5072137;28;20432;-71
2021/06/30 00:17:00;;;;;;;3.93;3.27;;;;;;;;;;5072161;28;20459;-71
2021/06/30 00:19:29;;;;;;;3.50;2.80;;;;;;;;;;5072109;28;20475;-71
2021/06/30 00:21:56;;;;;;;4.00;3.10;;;;;;;;;;5082151;28;20548;-71
2021/06/30 00:24:22;;;;;;;3.43;2.83;;;;;;;;;;5091985;28;20786;-71
2021/06/30 00:26:48;;;;;;;4.00;3.20;;;;;;;;;;5091245;28;20412;-71
2021/06/30 00:29:14;;;;;;;2.80;2.50;;;;;;;;;;5090527;28;20416;-71
2021/06/30 00:31:40;;;;;;;2.97;2.67;;;;;;;;;;5083619;28;20421;-70
2021/06/30 00:34:06;;;;;;;5.30;2.90;;;;;;;;;;5072400;28;20466;-71
2021/06/30 00:36:36;;;;;;;3.47;3.13;;;;;;;;;;5078102;28;20408;-71
2021/06/30 00:39:04;;;;;;;3.00;2.50;;;;;;;;;;5092258;28;20414;-71
2021/06/30 00:41:30;;;;;;;4.03;3.43;;;;;;;;;;5091275;28;20495;-71
2021/06/30 00:43:56;;;;;;;5.00;2.87;;;;;;;;;;5092749;28;20803;-72
2021/06/30 00:46:30;;;;;;;3.50;3.20;;;;;;;;;;5090075;28;20964;-72
2021/06/30 00:48:56;;;;;;;3.63;3.27;;;;;;;;;;5096093;28;20400;-72
2021/06/30 00:51:23;;;;;;;5.37;3.23;;;;;;;;;;5090658;28;20790;-71
2021/06/30 00:53:49;;;;;;;4.00;2.90;;;;;;;;;;5076045;28;21050;-72
2021/06/30 00:56:22;;;;;;;4.03;3.27;;;;;;;;;;5078778;28;20419;-71
2021/06/30 00:58:48;;;;;;;3.37;3.00;;;;;;;;;;5096839;28;20393;-71
2021/06/30 01:01:14;;;;;;;3.47;2.87;;;;;;;;;;5094512;28;20552;-71
2021/06/30 01:03:40;;;;;;;3.93;3.27;;;;;;;;;;5094742;28;20582;-72
2021/06/30 01:06:06;;;;;;;3.60;3.00;;;;;;;;;;5094634;28;20763;-72
2021/06/30 01:08:32;;;;;;;3.90;3.20;;;;;;;;;;5095676;28;20399;-71
2021/06/30 01:10:58;;;;;;;4.50;3.83;;;;;;;;;;5093066;28;20405;-71
2021/06/30 01:13:24;;;;;;;6.70;3.07;;;;;;;;;;5095456;28;20586;-71
2021/06/30 01:15:57;;;;;;;5.20;2.80;;;;;;;;;;5094865;28;20426;-70
2021/06/30 01:18:24;;;;;;;3.70;2.60;;;;;;;;;;5075201;28;20472;-71
2021/06/30 01:20:51;;;;;;;4.00;3.10;;;;;;;;;;5073737;28;20453;-71
2021/06/30 01:23:17;;;;;;;3.03;2.73;;;;;;;;;;5094466;28;20473;-71
2021/06/30 01:25:43;;;;;;;3.90;2.60;;;;;;;;;;5095237;28;20457;-71
2021/06/30 01:28:09;;;;;;;3.63;2.80;;;;;;;;;;5093790;28;20435;-71
2021/06/30 01:30:35;;;;;;;3.30;3.00;;;;;;;;;;5094432;28;20467;-71
2021/06/30 01:33:01;;;;;;;3.70;2.80;;;;;;;;;;5093908;28;20424;-71
2021/06/30 01:35:27;;;;;;;3.17;2.63;;;;;;;;;;5095229;28;20423;-71
2021/06/30 01:37:58;;;;;;;4.03;2.90;;;;;;;;;;5091795;28;20428;-71
2021/06/30 01:40:24;;;;;;;4.50;3.67;;;;;;;;;;5081492;28;20589;-71
2021/06/30 01:42:54;;;;;;;4.13;3.30;;;;;;;;;;5092851;28;20925;-71
2021/06/30 01:45:20;;;;;;;4.30;3.47;;;;;;;;;;5095221;28;20404;-71
2021/06/30 01:47:46;;;;;;;3.20;2.90;;;;;;;;;;5093382;28;20885;-71
2021/06/30 01:50:12;;;;;;;3.67;3.10;;;;;;;;;;5095105;28;20903;-71
2021/06/30 01:52:38;;;;;;;3.87;3.43;;;;;;;;;;5093449;28;20935;-71
2021/06/30 01:55:05;;;;;;;4.40;3.03;;;;;;;;;;5094706;28;20432;-71
2021/06/30 01:57:31;;;;;;;4.97;3.77;;;;;;;;;;5092290;28;20443;-71
2021/06/30 01:59:57;;;;;;;5.70;3.30;;;;;;;;;;5094690;28;20497;-71
2021/06/30 02:02:28;;;;;;;3.87;3.37;;;;;;;;;;5092731;28;20532;-71
2021/06/30 02:05:07;;;;;;;3.73;3.30;;;;;;;;;;5094629;28;20419;-71
2021/06/30 02:07:33;;;;;;;3.60;2.93;;;;;;;;;;5086687;28;20428;-71
2021/06/30 02:09:59;;;;;;;4.20;3.10;;;;;;;;;;5074392;28;20403;-71
2021/06/30 02:12:25;;;;;;;7.43;4.03;;;;;;;;;;5072979;28;20436;-71
2021/06/30 02:14:52;;;;;;;4.70;3.80;;;;;;;;;;5073785;28;20647;-71
2021/06/30 02:17:18;;;;;;;3.57;3.00;;;;;;;;;;5078033;28;20920;-71
2021/06/30 02:19:48;;;;;;;3.47;2.97;;;;;;;;;;5094362;28;20456;-71
2021/06/30 02:22:14;;;;;;;4.10;3.20;;;;;;;;;;5089832;28;20432;-71
2021/06/30 02:24:40;;;;;;;4.23;3.47;;;;;;;;;;5091340;28;20444;-71
2021/06/30 02:27:06;;;;;;;4.23;3.30;;;;;;;;;;5090181;28;20485;-71
2021/06/30 02:29:32;;;;;;;7.03;3.20;;;;;;;;;;5094494;28;20411;-71
2021/06/30 02:31:58;;;;;;;3.77;3.40;;;;;;;;;;5092842;28;20408;-71
2021/06/30 02:34:24;;;;;;;6.30;3.47;;;;;;;;;;5092796;28;20928;-71
2021/06/30 02:36:50;;;;;;;4.23;3.17;;;;;;;;;;5093451;28;20415;-71
2021/06/30 02:39:16;;;;;;;5.07;3.20;;;;;;;;;;5093460;28;20624;-71
2021/06/30 02:41:42;;;;;;;4.87;3.17;;;;;;;;;;5094343;28;20444;-71
2021/06/30 02:44:08;;;;;;;3.27;2.80;;;;;;;;;;5092335;28;20567;-71
2021/06/30 02:46:34;;;;;;;3.33;2.90;;;;;;;;;;5094115;28;20415;-71
2021/06/30 02:49:00;;;;;;;4.67;3.63;;;;;;;;;;5090456;28;20876;-71
2021/06/30 02:51:26;;;;;;;4.73;2.30;;;;;;;;;;5094269;28;20396;-71
2021/06/30 02:53:52;;;;;;;3.60;3.07;;;;;;;;;;5092857;28;20462;-71
2021/06/30 02:56:21;;;;;;;4.20;2.60;;;;;;;;;;5094331;28;20454;-71
2021/06/30 02:58:47;;;;;;;3.73;3.03;;;;;;;;;;5092685;28;20439;-71
2021/06/30 03:01:13;;;;;;;3.60;2.67;;;;;;;;;;5093969;28;20443;-71
2021/06/30 03:03:39;;;;;;;3.33;1.80;;;;;;;;;;5091151;28;20531;-71
2021/06/30 03:06:05;;;;;;;2.30;2.00;;;;;;;;;;5092537;28;20845;-71
2021/06/30 03:08:31;;;;;;;2.47;1.77;;;;;;;;;;5092921;28;20420;-71
2021/06/30 03:10:57;;;;;;;2.73;1.70;;;;;;;;;;5087391;28;20443;-71
2021/06/30 03:13:23;;;;;;;4.53;1.57;;;;;;;;;;5093140;28;21027;-71
2021/06/30 03:15:51;;;;;;;1.50;1.10;;;;;;;;;;5090068;28;20459;-71
2021/06/30 03:18:18;;;;;;;2.03;1.47;;;;;;;;;;5079539;28;20430;-70
2021/06/30 03:20:44;;;;;;;1.40;1.03;;;;;;;;;;5093419;28;20462;-70
2021/06/30 03:23:10;;;;;;;4.90;1.10;;;;;;;;;;5091840;28;20881;-70
2021/06/30 03:25:36;;;;;;;2.37;1.33;;;;;;;;;;5093304;28;20419;-70
2021/06/30 03:28:02;;;;;;;3.20;1.33;;;;;;;;;;5092054;28;20920;-71
2021/06/30 03:30:31;;;;;;;3.40;1.10;;;;;;;;;;5093335;28;20473;-71
2021/06/30 03:32:57;;;;;;;1.70;1.43;;;;;;;;;;5091929;28;20484;-70
2021/06/30 03:35:23;;;;;;;1.73;0.90;;;;;;;;;;5091000;28;20916;-71
2021/06/30 03:37:49;;;;;;;2.17;1.10;;;;;;;;;;5091946;28;20408;-70
2021/06/30 03:40:15;;;;;;;1.60;0.90;;;;;;;;;;5093000;28;20513;-71
2021/06/30 03:42:41;;;;;;;1.60;1.00;;;;;;;;;;5093162;28;20392;-71
2021/06/30 03:45:08;;;;;;;1.30;0.80;;;;;;;;;;5091592;28;20880;-71
2021/06/30 03:47:34;;;;;;;1.67;0.97;;;;;;;;;;5093313;28;20885;-71
2021/06/30 03:50:00;;;;;;;1.47;0.87;;;;;;;;;;5089052;28;21001;-71
2021/06/30 03:52:27;;;;;;;4.57;0.93;;;;;;;;;;5086854;28;20428;-71
2021/06/30 03:54:53;;;;;;;1.50;0.80;;;;;;;;;;5088963;28;20474;-70
2021/06/30 03:57:20;;;;;;;1.43;0.93;;;;;;;;;;5083682;28;20429;-71
2021/06/30 03:59:46;;;;;;;1.20;0.70;;;;;;;;;;5087269;28;20489;-70
2021/06/30 04:02:12;;;;;;;2.57;0.90;;;;;;;;;;5093031;28;20911;-71
2021/06/30 04:04:38;;;;;;;2.30;1.10;;;;;;;;;;5091442;28;20443;-70
2021/06/30 04:07:04;;;;;;;1.60;0.93;;;;;;;;;;5092929;28;20400;-71
2021/06/30 04:09:30;;;;;;;1.97;1.00;;;;;;;;;;5091541;28;20481;-70
2021/06/30 04:11:56;;;;;;;1.83;0.83;;;;;;;;;;5092944;28;20435;-71
2021/06/30 04:14:22;;;;;;;1.40;0.80;;;;;;;;;;5091535;28;20519;-70
2021/06/30 04:16:48;;;;;;;2.33;0.80;;;;;;;;;;5092958;28;20420;-71
2021/06/30 04:19:14;;;;;;;1.50;0.70;;;;;;;;;;5091757;28;20481;-70
2021/06/30 04:21:41;;;;;;;1.30;0.70;;;;;;;;;;5093034;28;20438;-71
2021/06/30 04:24:07;;;;;;;1.20;0.70;;;;;;;;;;5095291;28;20473;-70
2021/06/30 04:26:34;;;;;;;1.40;0.80;;;;;;;;;;5096409;28;20388;-70
2021/06/30 04:29:00;;;;;;;1.40;0.90;;;;;;;;;;5087092;28;20461;-70
2021/06/30 04:31:27;;;;;;;1.30;0.70;;;;;;;;;;5076187;28;20435;-71
2021/06/30 04:33:53;;;;;;;1.30;0.90;;;;;;;;;;5084230;28;20431;-70
2021/06/30 04:36:19;;;;;;;1.20;0.70;;;;;;;;;;5096287;28;20448;-70
2021/06/30 04:38:45;;;;;;;1.33;0.80;;;;;;;;;;5094528;28;20449;-72
2021/06/30 04:41:11;;;;;;;5.30;0.90;;;;;;;;;;5095979;28;20441;-71
2021/06/30 04:43:40;;;;;;;1.30;0.77;;;;;;;;;;5079577;28;20807;-70
2021/06/30 04:46:07;;;;;;;1.50;0.97;;;;;;;;;;5095963;28;20396;-71
2021/06/30 04:48:34;;;;;;;2.60;0.80;;;;;;;;;;5094508;28;20485;-70
2021/06/30 04:51:00;;;;;;;1.50;0.80;;;;;;;;;;5094841;28;20416;-71
2021/06/30 04:53:27;;;;;;;2.80;1.07;;;;;;;;;;5094042;28;20452;-70
2021/06/30 04:55:53;;;;;;;1.40;0.93;;;;;;;;;;5095842;28;20392;-71
2021/06/30 04:58:19;;;;;;;1.30;0.77;;;;;;;;;;5092664;28;20446;-71
2021/06/30 05:00:45;;;;;;;1.30;0.70;;;;;;;;;;5075690;28;20502;-71
2021/06/30 05:03:11;;;;;;;1.40;0.70;;;;;;;;;;5075210;28;20421;-71
2021/06/30 05:05:37;;;;;;;4.30;0.97;;;;;;;;;;5114492;28;20408;-70
2021/06/30 05:08:04;;;;;;;1.70;0.70;;;;;;;;;;5115995;28;20387;-71
2021/06/30 05:10:30;;;;;;;1.43;0.70;;;;;;;;;;5097864;28;20420;-64
2021/06/30 05:12:56;;;;;;;2.40;0.80;;;;;;;;;;5096918;28;20412;-72
2021/06/30 05:15:22;;;;;;;1.60;0.77;;;;;;;;;;5091716;28;20416;-71
2021/06/30 05:17:49;;;;;;;2.07;1.20;;;;;;;;;;5094556;28;20424;-70
2021/06/30 05:20:16;;;;;;;1.93;1.00;;;;;;;;;;5105399;28;20477;-67
2021/06/30 05:22:42;;;;;;;2.00;0.80;;;;;;;;;;5096560;28;20424;-69
2021/06/30 05:25:08;;;;;;;2.00;0.80;;;;;;;;;;5104130;28;20450;-70
2021/06/30 05:27:34;;;;;;;1.50;0.70;;;;;;;;;;5115904;28;20464;-73
2021/06/30 05:30:00;;;;;;;1.50;0.90;;;;;;;;;;5113742;28;20430;-68
2021/06/30 05:32:26;;;;;;;2.73;0.70;;;;;;;;;;5115529;28;20406;-71
2021/06/30 05:34:52;;;;;;;2.27;0.90;;;;;;;;;;5108151;28;20854;-70
2021/06/30 05:37:18;;;;;;;1.73;0.80;;;;;;;;;;5100518;28;20453;-70
2021/06/30 05:39:44;;;;;;;1.30;0.70;;;;;;;;;;5114135;28;20470;-70
2021/06/30 05:42:10;;;;;;;1.60;0.77;;;;;;;;;;5115541;28;20406;-70
2021/06/30 05:44:36;;;;;;;1.60;0.70;;;;;;;;;;5113223;28;20443;-70
2021/06/30 05:47:03;;;;;;;2.00;0.73;;;;;;;;;;5115189;28;20426;-70
2021/06/30 05:49:29;;;;;;;1.60;0.73;;;;;;;;;;5110599;28;20492;-70
2021/06/30 05:51:55;;;;;;;1.40;0.80;;;;;;;;;;5094642;28;20412;-70
2021/06/30 05:54:21;;;;;;;1.40;0.60;;;;;;;;;;5092702;28;20428;-69
2021/06/30 05:56:47;;;;;;;1.93;0.90;;;;;;;;;;5095370;28;20600;-70
2021/06/30 05:59:14;;;;;;;1.30;0.70;;;;;;;;;;5094068;28;20401;-70
2021/06/30 06:01:40;;;;;;;4.03;0.70;;;;;;;;;;5114942;28;20459;-71
2021/06/30 06:04:06;;;;;;;1.50;0.80;;;;;;;;;;5114049;28;20423;-69
2021/06/30 06:06:32;;;;;;;1.73;0.90;;;;;;;;;;5114747;28;20411;-69
2021/06/30 06:08:58;;;;;;;1.60;0.90;;;;;;;;;;5106311;28;20467;-73
2021/06/30 06:11:24;;;;;;;1.40;0.60;;;;;;;;;;5106387;28;20483;-71
2021/06/30 06:13:50;;;;;;;2.00;0.70;;;;;;;;;;5094592;28;20931;-70
2021/06/30 06:16:19;;;;;;;1.23;0.60;;;;;;;;;;5110562;28;20941;-71
2021/06/30 06:18:46;;;;;;;1.50;0.70;;;;;;;;;;5114782;28;20748;-70
2021/06/30 06:21:23;;;;;;;1.60;0.70;;;;;;;;;;5107064;28;20483;-71
2021/06/30 06:23:49;;;;;;;1.40;0.73;;;;;;;;;;5075764;28;20998;-70
2021/06/30 06:26:16;;;;;;;1.30;0.60;;;;;;;;;;5096053;28;20452;-69
2021/06/30 06:28:42;;;;;;;1.50;0.83;;;;;;;;;;5091108;28;20408;-72
2021/06/30 06:31:13;;;;;;;1.50;0.70;;;;;;;;;;5091640;28;20456;-72
2021/06/30 06:33:40;;;;;;;2.50;0.80;;;;;;;;;;5094436;28;20424;-68
2021/06/30 06:36:06;;;;;;;1.70;0.90;;;;;;;;;;5098595;28;20424;-70
2021/06/30 06:38:32;;;;;;;3.60;0.90;;;;;;;;;;5094512;28;20405;-67
2021/06/30 06:40:58;;;;;;;1.30;0.60;;;;;;;;;;5106778;28;20473;-70
2021/06/30 06:43:24;;;;;;;1.30;0.60;;;;;;;;;;5101248;28;20443;-72
2021/06/30 06:45:50;;;;;;;1.40;0.70;;;;;;;;;;5105031;28;20786;-71
2021/06/30 06:48:16;;;;;;;2.17;0.80;;;;;;;;;;5097803;27;20524;-74
2021/06/30 06:50:42;;;;;;;1.40;0.70;;;;;;;;;;5092467;28;20423;-69
2021/06/30 06:53:08;;;;;;;2.10;0.90;;;;;;;;;;5093801;28;20977;-70
2021/06/30 06:55:35;;;;;;;1.80;0.60;;;;;;;;;;5085253;28;20831;-70
2021/06/30 06:58:01;;;;;;;1.40;0.70;;;;;;;;;;5076760;28;20499;-68
2021/06/30 07:00:27;;;;;;;1.30;0.70;;;;;;;;;;5086161;28;20821;-71
2021/06/30 07:02:53;;;;;;;1.50;0.70;;;;;;;;;;5092791;28;20865;-68
2021/06/30 07:05:19;;;;;;;2.37;0.70;;;;;;;;;;5096243;28;20416;-72
2021/06/30 07:07:46;;;;;;;3.23;0.87;;;;;;;;;;5074083;28;20877;-68
2021/06/30 07:10:13;;;;;;;1.27;0.60;;;;;;;;;;5092896;28;20442;-71
2021/06/30 07:12:39;;;;;;;1.50;0.70;;;;;;;;;;5092767;28;20807;-70
2021/06/30 07:15:06;;;;;;;1.63;0.70;;;;;;;;;;5092532;28;20547;-70
2021/06/30 07:17:33;;;;;;;2.50;0.70;;;;;;;;;;5098738;28;20423;-69
2021/06/30 07:19:59;;;;;;;2.57;0.87;;;;;;;;;;5111582;28;20501;-70
2021/06/30 07:22:25;;;;;;;1.50;0.80;;;;;;;;;;5113721;28;20400;-70
2021/06/30 07:24:51;;;;;;;1.30;0.73;;;;;;;;;;5111731;28;20821;-70
2021/06/30 07:27:17;;;;;;;1.33;0.60;;;;;;;;;;5101193;28;20423;-69
2021/06/30 07:29:43;;;;;;;1.50;0.67;;;;;;;;;;5092808;28;20427;-70
2021/06/30 07:32:09;;;;;;;1.30;0.60;;;;;;;;;;5097345;28;20462;-69
2021/06/30 07:34:35;;;;;;;1.83;0.70;;;;;;;;;;5091784;28;20444;-70
2021/06/30 07:37:02;;;;;;;1.40;0.60;;;;;;;;;;5095429;28;20940;-69
2021/06/30 07:39:29;;;;;;;2.17;0.70;;;;;;;;;;5092512;28;20453;-70
2021/06/30 07:41:55;;;;;;;1.33;0.63;;;;;;;;;;5102166;28;20428;-70
2021/06/30 07:44:21;;;;;;;1.37;0.63;;;;;;;;;;5091710;28;20432;-70
2021/06/30 07:46:48;;;;;;;4.70;0.80;;;;;;;;;;5092220;28;20423;-70
2021/06/30 07:49:14;;;;;;;1.20;0.60;;;;;;;;;;5092362;28;20416;-70
2021/06/30 07:51:40;;;;;;;1.40;0.60;;;;;;;;;;5087190;28;20438;-69
2021/06/30 07:54:06;;;;;;;1.50;0.60;;;;;;;;;;5092438;28;20456;-68
2021/06/30 07:56:39;;;;;;;1.37;0.60;;;;;;;;;;5093791;28;20538;-73
2021/06/30 07:59:06;;;;;;;2.23;0.70;;;;;;;;;;5094083;28;20515;-74
2021/06/30 08:01:32;;;;;;;1.70;0.80;;;;;;;;;;5099776;28;20457;-76
2021/06/30 08:03:59;;;;;;;2.00;0.67;;;;;;;;;;5096461;28;20463;-76
2021/06/30 08:06:25;;;;;;;2.80;0.93;;;;;;;;;;5092264;28;20455;-71
2021/06/30 08:08:51;;;;;;;2.57;0.60;;;;;;;;;;5086734;28;20450;-75
2021/06/30 08:11:17;;;;;;;4.00;0.87;;;;;;;;;;5097962;28;20793;-75
2021/06/30 08:13:44;;;;;;;1.30;0.67;;;;;;;;;;5081994;28;20444;-70
2021/06/30 08:16:10;;;;;;;1.20;0.60;;;;;;;;;;5097548;28;20776;-72
2021/06/30 08:18:36;;;;;;;2.17;0.80;;;;;;;;;;5107815;27;20877;-71
2021/06/30 08:21:02;;;;;;;1.37;0.63;;;;;;;;;;5094435;28;20451;-71
2021/06/30 08:23:28;;;;;;;1.47;0.80;;;;;;;;;;5097009;28;20502;-71
2021/06/30 08:25:54;;;;;;;1.73;0.70;;;;;;;;;;5097758;28;20433;-73
2021/06/30 08:28:25;;;;;;;1.70;0.80;;;;;;;;;;5098671;28;20876;-73
2021/06/30 08:30:51;;;;;;;1.50;0.70;;;;;;;;;;5100638;28;20573;-73
2021/06/30 08:33:18;;;;;;;1.50;0.60;;;;;;;;;;5102159;28;20450;-71
2021/06/30 08:35:44;;;;;;;2.07;0.77;;;;;;;;;;5093238;28;20523;-74
2021/06/30 08:38:10;;;;;;;2.03;0.80;;;;;;;;;;5096932;28;20435;-72
2021/06/30 08:40:39;;;;;;;2.63;0.80;;;;;;;;;;5095085;28;20474;-73
2021/06/30 08:43:07;;;;;;;1.87;0.70;;;;;;;;;;5100213;28;20456;-73
2021/06/30 08:45:33;;;;;;;1.63;0.80;;;;;;;;;;5092835;28;20965;-74
2021/06/30 08:48:00;;;;;;;2.33;1.00;;;;;;;;;;5094457;28;20771;-75
2021/06/30 08:50:26;;;;;;;1.40;0.70;;;;;;;;;;5095838;28;20415;-73
2021/06/30 08:52:52;;;;;;;1.67;0.70;;;;;;;;;;5095981;28;20948;-73
2021/06/30 08:55:19;;;;;;;1.30;0.60;;;;;;;;;;5092530;28;20423;-73
2021/06/30 08:57:46;;;;;;;1.40;0.60;;;;;;;;;;5096619;28;20438;-72
2021/06/30 09:00:12;;;;;;;1.40;0.70;;;;;;;;;;5095954;28;20447;-72
2021/06/30 09:02:42;;;;;;;1.60;0.73;;;;;;;;;;5095546;28;20428;-71
2021/06/30 09:05:12;;;;;;;1.50;0.83;;;;;;;;;;5095209;28;20862;-74
2021/06/30 09:07:39;;;;;;;5.33;0.80;;;;;;;;;;5103824;28;20936;-76
2021/06/30 09:10:11;;;;;;;1.50;0.90;;;;;;;;;;5091818;28;21004;-74
2021/06/30 09:12:41;;;;;;;2.37;1.63;;;;;;;;;;5091523;28;20824;-75
2021/06/30 09:15:20;;;;;;;1.50;0.60;;;;;;;;;;5094803;28;20469;-72
2021/06/30 09:17:47;;;;;;;2.67;0.77;;;;;;;;;;5094285;28;20451;-71
2021/06/30 09:20:14;;;;;;;1.90;0.90;;;;;;;;;;5096140;28;20455;-73
2021/06/30 09:22:42;;;;;;;1.40;0.70;;;;;;;;;;5087999;28;20424;-77
2021/06/30 09:25:08;;;;;;;1.40;0.67;;;;;;;;;;5094826;28;20439;-73
2021/06/30 09:27:42;;;;;;;1.40;0.60;;;;;;;;;;5084880;28;20832;-73
2021/06/30 09:30:10;;;;;;;1.53;0.60;;;;;;;;;;5088410;28;20424;-74
2021/06/30 09:32:36;;;;;;;1.30;0.60;;;;;;;;;;5093735;28;20796;-74
2021/06/30 09:35:19;;;;;;;1.50;0.60;;;;;;;;;;5095856;28;20428;-75
2021/06/30 09:37:48;;;;;;;1.43;0.70;;;;;;;;;;5093225;28;20430;-72
2021/06/30 09:40:16;;;;;;;1.50;0.73;;;;;;;;;;5094065;28;20543;-71
2021/06/30 09:42:42;;;;;;;1.67;0.80;;;;;;;;;;5101901;28;20419;-73
2021/06/30 09:45:16;;;;;;;5.23;1.07;;;;;;;;;;5095017;28;20447;-74
2021/06/30 09:47:47;;;;;;;1.90;0.70;;;;;;;;;;5092731;28;20474;-74
2021/06/30 09:50:13;;;;;;;2.77;1.13;;;;;;;;;;5096393;28;20385;-75
2021/06/30 09:52:42;;;;;;;2.90;0.70;;;;;;;;;;5094855;28;20460;-78
2021/06/30 09:55:24;;;;;;;1.50;0.70;;;;;;;;;;5094325;28;20877;-76
2021/06/30 09:57:50;;;;;;;4.33;0.70;;;;;;;;;;5095238;28;20432;-78
2021/06/30 10:00:18;;;;;;;1.80;0.87;;;;;;;;;;5094201;28;20576;-72
2021/06/30 10:02:48;;;;;;;1.70;0.80;;;;;;;;;;5090360;28;20435;-77
2021/06/30 10:05:14;;;;;;;1.73;0.90;;;;;;;;;;5090043;28;20428;-72
2021/06/30 10:07:40;;;;;;;1.40;0.70;;;;;;;;;;5093402;28;20432;-76
2021/06/30 10:10:10;;;;;;;1.50;0.70;;;;;;;;;;5090672;28;20514;-74
2021/06/30 10:12:37;;;;;;;1.50;0.70;;;;;;;;;;5096247;28;20959;-73
2021/06/30 10:15:05;;;;;;;1.70;0.70;;;;;;;;;;5093134;28;20444;-74
2021/06/30 10:17:32;;;;;;;1.83;0.83;;;;;;;;;;5101300;28;20479;-77
2021/06/30 10:20:02;;;;;;;1.40;0.70;;;;;;;;;;5107323;28;20452;-73
2021/06/30 10:22:29;;;;;;;1.50;1.00;;;;;;;;;;5093320;28;20450;-73
2021/06/30 10:24:55;;;;;;;1.30;0.70;;;;;;;;;;5090906;28;20439;-73
2021/06/30 10:27:22;;;;;;;1.50;0.80;;;;;;;;;;5093248;28;20416;-74
2021/06/30 10:29:52;;;;;;;3.30;0.97;;;;;;;;;;5092968;28;20750;-73
2021/06/30 10:32:18;;;;;;;1.50;0.73;;;;;;;;;;5092066;28;20485;-73
2021/06/30 10:34:44;;;;;;;2.90;0.90;;;;;;;;;;5092341;28;20431;-75
2021/06/30 10:37:18;;;;;;;1.50;0.73;;;;;;;;;;5091723;28;20416;-72
2021/06/30 10:39:46;;;;;;;1.70;0.93;;;;;;;;;;5074294;28;20471;-71
2021/06/30 10:42:26;;;;;;;1.40;0.70;;;;;;;;;;5087979;28;20420;-71
2021/06/30 10:44:54;;;;;;;2.13;0.80;;;;;;;;;;5081802;28;20420;-70
2021/06/30 10:47:29;;;;;;;1.80;0.80;;;;;;;;;;5089623;28;20420;-70
2021/06/30 10:50:24;;;;;;;1.40;0.70;;;;;;;;;;5090745;28;20411;-70
2021/06/30 10:52:53;;;;;;;1.50;0.70;;;;;;;;;;5091557;28;20438;-70
2021/06/30 10:55:52;;;;;;;1.40;0.67;;;;;;;;;;5091280;28;20434;-70
2021/06/30 10:58:21;;;;;;;2.73;0.90;;;;;;;;;;5093643;28;20445;-70
2021/06/30 11:00:58;;;;;;;1.70;0.70;;;;;;;;;;5091627;28;20440;-70
2021/06/30 11:04:01;;;;;;;1.80;0.83;;;;;;;;;;5091995;28;20443;-70
2021/06/30 11:06:28;;;;;;;2.47;0.70;;;;;;;;;;5083571;28;20461;-69
2021/06/30 11:08:57;;;;;;;1.80;0.90;;;;;;;;;;5096561;28;20512;-70
2021/06/30 11:11:27;;;;;;;1.40;0.60;;;;;;;;;;5092153;28;20437;-69
2021/06/30 11:13:53;;;;;;;1.70;0.80;;;;;;;;;;5084605;28;20451;-69
2021/06/30 11:16:41;;;;;;;2.60;0.90;;;;;;;;;;5093416;28;20409;-69
2021/06/30 11:19:08;;;;;;;1.40;0.60;;;;;;;;;;5092634;28;20424;-70
2021/06/30 11:21:53;;;;;;;1.50;0.60;;;;;;;;;;5080128;28;20446;-70
2021/06/30 11:24:38;;;;;;;4.33;1.00;;;;;;;;;;5090769;28;20455;-70
2021/06/30 11:27:08;;;;;;;2.40;0.80;;;;;;;;;;5097630;28;20449;-70
2021/06/30 11:29:55;;;;;;;1.40;0.63;;;;;;;;;;5093997;28;20477;-70
2021/06/30 11:34:59;;;;;;;1.30;0.60;;;;;;;;;;5102486;28;20891;-70
2021/06/30 11:37:27;;;;;;;1.30;0.60;;;;;;;;;;5092482;28;20745;-71
2021/06/30 11:39:55;;;;;;;3.43;0.90;;;;;;;;;;5092105;28;20558;-70
2021/06/30 11:42:31;;;;;;;3.43;0.87;;;;;;;;;;5090895;28;20836;-70
2021/06/30 11:44:57;;;;;;;1.50;0.70;;;;;;;;;;5100625;28;20827;-70
2021/06/30 11:47:23;;;;;;;1.50;0.80;;;;;;;;;;5092086;28;20473;-68
2021/06/30 11:49:49;;;;;;;1.70;0.80;;;;;;;;;;5097762;28;20416;-69
2021/06/30 11:52:15;;;;;;;1.60;0.80;;;;;;;;;;5091260;28;20400;-69
2021/06/30 11:54:41;;;;;;;1.50;0.80;;;;;;;;;;5089535;28;20447;-68
2021/06/30 11:57:07;;;;;;;1.50;0.73;;;;;;;;;;5092144;28;20412;-71
2021/06/30 11:59:36;;;;;;;1.50;0.70;;;;;;;;;;5090085;28;20416;-72
2021/06/30 12:02:03;;;;;;;1.40;0.80;;;;;;;;;;5094019;28;20907;-70
2021/06/30 12:04:29;;;;;;;1.30;0.63;;;;;;;;;;5091934;28;20440;-69
2021/06/30 12:06:56;;;;;;;3.30;1.27;;;;;;;;;;5091154;28;20485;-69
2021/06/30 12:09:24;;;;;;;1.50;0.80;;;;;;;;;;5085612;28;20904;-69
2021/06/30 12:11:51;;;;;;;1.50;0.80;;;;;;;;;;5089852;28;20430;-70
2021/06/30 12:14:19;;;;;;;2.03;0.80;;;;;;;;;;5091235;28;20486;-70
2021/06/30 12:16:48;;;;;;;1.50;0.80;;;;;;;;;;5091506;28;20449;-75
2021/06/30 12:19:16;;;;;;;2.43;1.17;;;;;;;;;;5092391;28;20438;-69
2021/06/30 12:21:43;;;;;;;1.70;1.00;;;;;;;;;;5079971;28;20444;-69
2021/06/30 12:24:17;;;;;;;1.77;1.13;;;;;;;;;;5091249;28;20952;-69
2021/06/30 12:26:58;;;;;;;1.50;0.90;;;;;;;;;;5092237;28;20415;-68
2021/06/30 12:29:24;;;;;;;1.70;1.00;;;;;;;;;;5093965;28;20462;-72
2021/06/30 12:31:50;;;;;;;8.93;1.20;;;;;;;;;;5094603;28;20400;-73
2021/06/30 12:34:16;;;;;;;2.17;1.10;;;;;;;;;;5090709;28;20456;-71
2021/06/30 12:36:42;;;;;;;6.97;1.20;;;;;;;;;;5095326;28;20436;-72
2021/06/30 12:39:21;;;;;;;1.77;0.70;;;;;;;;;;5089849;28;20812;-74
2021/06/30 12:41:55;;;;;;;1.90;1.00;;;;;;;;;;5086832;28;20443;-72
2021/06/30 12:44:21;;;;;;;4.80;1.03;;;;;;;;;;5087217;28;20448;-73
2021/06/30 12:46:47;;;;;;;3.83;1.43;;;;;;;;;;5098067;28;20420;-73
2021/06/30 12:49:17;;;;;;;2.07;1.10;;;;;;;;;;5098209;28;20450;-72
2021/06/30 12:51:46;;;;;;;1.70;1.10;;;;;;;;;;5101065;28;20525;-66
2021/06/30 12:54:12;;;;;;;3.50;1.20;;;;;;;;;;5088939;28;20543;-71
2021/06/30 12:56:45;;;;;;;2.13;1.20;;;;;;;;;;5088753;28;20454;-73
2021/06/30 12:59:15;;;;;;;2.30;1.30;;;;;;;;;;5086840;28;20422;-72
2021/06/30 13:01:41;;;;;;;2.27;1.10;;;;;;;;;;5097229;28;20451;-69
2021/06/30 13:04:08;;;;;;;1.93;1.10;;;;;;;;;;5099072;28;20439;-71
2021/06/30 13:06:53;;;;;;;2.20;1.53;;;;;;;;;;5094786;28;20539;-72
2021/06/30 13:09:24;;;;;;;2.37;1.13;;;;;;;;;;5095649;28;20426;-72
2021/06/30 13:11:52;;;;;;;2.20;1.53;;;;;;;;;;5094903;28;20427;-74
2021/06/30 13:14:22;;;;;;;2.63;1.23;;;;;;;;;;5099186;28;20447;-73
2021/06/30 13:16:48;;;;;;;3.97;1.63;;;;;;;;;;5099222;28;20486;-75
2021/06/30 13:19:17;;;;;;;2.30;1.50;;;;;;;;;;5093144;28;20436;-73
2021/06/30 13:22:09;;;;;;;2.77;1.10;;;;;;;;;;5094318;28;20826;-71
2021/06/30 13:24:42;;;;;;;4.23;1.83;;;;;;;;;;5088681;28;20444;-72
2021/06/30 13:34:17;;;;;;;2.30;1.53;;;;;;;;;;5095232;28;20420;-73
2021/06/30 13:35:51;;;;;;;3.57;1.50;;;;;;;;;;5095000;28;20451;-72
2021/06/30 13:38:29;;;;;;;1.50;0.90;;;;;;;;;;5089555;28;20506;-72
2021/06/30 13:40:56;;;;;;;3.23;1.20;;;;;;;;;;5092467;28;20468;-71
2021/06/30 13:43:22;;;;;;;2.00;1.30;;;;;;;;;;5094481;28;20430;-70
2021/06/30 13:45:50;;;;;;;2.50;1.40;;;;;;;;;;5096022;28;20499;-73
2021/06/30 13:48:17;;;;;;;2.90;2.00;;;;;;;;;;5092382;28;20432;-73
2021/06/30 13:50:47;;;;;;;2.50;1.10;;;;;;;;;;5090574;28;20831;-73
2021/06/30 13:53:13;;;;;;;2.17;1.33;;;;;;;;;;5094415;28;20451;-72
2021/06/30 13:55:40;;;;;;;3.27;1.40;;;;;;;;;;5092078;28;20460;-76
2021/06/30 13:58:06;;;;;;;2.50;1.33;;;;;;;;;;5094958;28;20408;-73
2021/06/30 14:00:32;;;;;;;3.67;1.27;;;;;;;;;;5094552;28;20836;-73
2021/06/30 14:02:58;;;;;;;3.63;1.27;;;;;;;;;;5095115;28;20420;-72
2021/06/30 14:05:24;;;;;;;3.20;1.57;;;;;;;;;;5093443;28;20925;-72
2021/06/30 14:07:50;;;;;;;1.70;0.90;;;;;;;;;;5095218;28;20491;-74
2021/06/30 14:10:17;;;;;;;1.77;1.10;;;;;;;;;;5079891;28;20446;-73
2021/06/30 14:12:44;;;;;;;1.97;1.00;;;;;;;;;;5081042;28;20439;-75
2021/06/30 14:15:10;;;;;;;2.63;1.20;;;;;;;;;;5094540;28;20531;-70
2021/06/30 14:17:37;;;;;;;1.67;1.00;;;;;;;;;;5095492;28;20900;-70
2021/06/30 14:20:04;;;;;;;1.70;0.80;;;;;;;;;;5099727;28;20459;-75
2021/06/30 14:22:31;;;;;;;2.73;0.97;;;;;;;;;;5100779;28;20733;-73
2021/06/30 14:24:57;;;;;;;2.53;1.63;;;;;;;;;;5097623;28;20542;-74
2021/06/30 14:27:24;;;;;;;1.60;0.80;;;;;;;;;;5089148;28;20420;-76
2021/06/30 14:29:51;;;;;;;3.17;0.97;;;;;;;;;;5093456;28;21263;-74
2021/06/30 14:32:18;;;;;;;3.50;1.27;;;;;;;;;;5092748;28;20504;-75
2021/06/30 14:34:44;;;;;;;1.40;0.80;;;;;;;;;;5094185;28;20449;-71
2021/06/30 14:37:10;;;;;;;2.57;1.10;;;;;;;;;;5092034;28;20435;-72
2021/06/30 14:39:39;;;;;;;1.80;1.10;;;;;;;;;;5091514;28;20528;-72
2021/06/30 14:42:05;;;;;;;1.90;0.93;;;;;;;;;;5093233;28;20813;-70
2021/06/30 14:44:31;;;;;;;1.60;0.90;;;;;;;;;;5093061;28;20513;-73
2021/06/30 14:46:58;;;;;;;3.43;1.50;;;;;;;;;;5095091;28;20786;-71
2021/06/30 14:49:24;;;;;;;1.70;0.83;;;;;;;;;;5091798;28;20444;-70
2021/06/30 14:51:50;;;;;;;2.23;0.80;;;;;;;;;;5089261;28;20457;-73
2021/06/30 14:54:16;;;;;;;2.00;1.00;;;;;;;;;;5093093;28;20439;-73
2021/06/30 14:56:42;;;;;;;1.80;0.83;;;;;;;;;;5111020;28;20407;-69